Time;durP1;ratioP1;P1;durP2;ratioP2;P2;SDS_P1;SDS_P2;PMS_P1;PMS_P2;Temp;Humidity;BMP_temperature;BMP_pressure;BME280_temperature;BME280_humidity;BME280_pressure;Samples;Min_cycle;Max_cycle;Signal;HPM_P1;HPM_P2
2023/07/11 00:00:31;;;;;;;12.65;3.10;;;;;;;;;;5115212;27;20482;-72
2023/07/11 00:02:57;;;;;;;9.40;2.55;;;20.00;97.00;;;;;;5126454;27;20047;-73
2023/07/11 00:05:23;;;;;;;9.50;2.63;;;;;;;;;;5114364;27;20195;-72
2023/07/11 00:07:49;;;;;;;10.85;2.65;;;20.30;97.20;;;;;;5128021;27;20071;-73
2023/07/11 00:10:18;;;;;;;10.60;2.70;;;19.20;96.90;;;;;;5124242;27;20527;-73
2023/07/11 00:12:44;;;;;;;9.38;3.08;;;;;;;;;;5117333;27;20066;-73
2023/07/11 00:15:12;;;;;;;13.82;2.70;;;20.40;97.60;;;;;;5124406;27;20059;-72
2023/07/11 00:17:39;;;;;;;13.68;3.10;;;21.10;97.90;;;;;;5121868;27;20031;-73
2023/07/11 00:20:05;;;;;;;6.75;2.95;;;19.90;97.60;;;;;;5131481;27;20035;-73
2023/07/11 00:22:32;;;;;;;11.95;2.88;;;19.00;95.20;;;;;;5123803;27;20036;-72
2023/07/11 00:24:58;;;;;;;6.70;2.60;;;21.10;98.00;;;;;;5122735;27;20118;-72
2023/07/11 00:27:24;;;;;;;9.20;2.40;;;;;;;;;;5127514;27;20107;-73
2023/07/11 00:29:51;;;;;;;14.10;2.63;;;21.10;98.10;;;;;;5127013;27;20039;-73
2023/07/11 00:32:17;;;;;;;11.18;3.10;;;20.10;93.60;;;;;;5101361;28;20044;-73
2023/07/11 00:34:44;;;;;;;8.75;2.60;;;19.90;98.00;;;;;;5126178;27;20385;-73
2023/07/11 00:37:10;;;;;;;20.75;3.08;;;20.80;98.20;;;;;;5126747;27;20038;-73
2023/07/11 00:39:37;;;;;;;8.57;2.80;;;19.40;97.90;;;;;;5129299;27;20434;-73
2023/07/11 00:42:07;;;;;;;7.88;2.35;;;18.90;93.30;;;;;;5126164;27;20108;-73
2023/07/11 00:44:57;;;;;;;8.32;2.63;;;19.10;97.90;;;;;;5123839;27;20454;-72
2023/07/11 00:47:25;;;;;;;11.48;2.92;;;20.90;98.40;;;;;;5128570;27;20386;-72
2023/07/11 00:49:56;;;;;;;9.00;2.80;;;20.10;94.00;;;;;;5121720;27;20466;-72
2023/07/11 00:52:23;;;;;;;7.45;2.40;;;;;;;;;;5120881;27;20042;-72
2023/07/11 00:54:54;;;;;;;9.18;2.50;;;19.70;94.00;;;;;;5128419;27;20425;-72
2023/07/11 00:57:23;;;;;;;9.70;2.40;;;20.70;98.50;;;;;;5118628;27;20493;-69
2023/07/11 00:59:51;;;;;;;13.25;2.80;;;;;;;;;;5112881;27;20114;-69
2023/07/11 01:02:26;;;;;;;13.73;2.88;;;20.00;93.00;;;;;;5113365;27;20043;-70
2023/07/11 01:04:52;;;;;;;10.93;2.50;;;;;;;;;;5131290;27;20051;-70
2023/07/11 01:07:21;;;;;;;10.20;2.90;;;19.70;93.90;;;;;;5097234;27;20092;-69
2023/07/11 01:09:47;;;;;;;9.57;2.55;;;18.80;94.60;;;;;;5114745;27;20043;-70
2023/07/11 01:12:15;;;;;;;10.18;3.47;;;18.30;93.90;;;;;;5129988;27;20087;-69
2023/07/11 01:14:43;;;;;;;15.02;4.20;;;19.60;94.40;;;;;;5127109;27;20047;-70
2023/07/11 01:17:38;;;;;;;12.68;4.18;;;19.00;98.70;;;;;;5095712;27;20034;-69
2023/07/11 01:20:07;;;;;;;11.55;4.22;;;19.70;94.80;;;;;;5098479;27;20052;-69
2023/07/11 01:22:38;;;;;;;11.73;3.35;;;19.00;99.00;;;;;;5116309;27;20032;-69
2023/07/11 01:25:13;;;;;;;13.07;3.60;;;18.60;94.10;;;;;;5131117;27;20099;-69
2023/07/11 01:27:41;;;;;;;12.20;3.67;;;20.40;97.40;;;;;;5116610;28;20047;-70
2023/07/11 01:30:10;;;;;;;10.25;3.20;;;18.80;99.30;;;;;;5114589;27;20039;-70
2023/07/11 01:32:36;;;;;;;10.70;3.33;;;;;;;;;;5114638;27;20104;-72
2023/07/11 01:35:03;;;;;;;11.63;3.50;;;20.50;99.90;;;;;;5117287;28;20051;-72
2023/07/11 01:37:30;;;;;;;6.63;2.97;;;20.40;97.00;;;;;;5128110;27;20035;-72
2023/07/11 01:39:56;;;;;;;14.88;3.70;;;18.30;99.80;;;;;;5116987;28;20136;-73
2023/07/11 01:42:22;;;;;;;9.82;3.47;;;;;;;;;;5126911;27;20071;-73
2023/07/11 01:44:48;;;;;;;12.15;4.13;;;18.70;99.90;;;;;;5110045;28;20031;-73
2023/07/11 01:47:14;;;;;;;8.80;3.95;;;;;;;;;;5118846;28;20039;-73
2023/07/11 01:49:40;;;;;;;15.05;5.75;;;18.00;99.90;;;;;;5123269;28;20032;-73
2023/07/11 01:52:24;;;;;;;12.98;5.15;;;20.30;99.90;;;;;;5123535;28;20117;-73
2023/07/11 01:54:50;;;;;;;11.50;5.05;;;;;;;;;;5116320;28;20038;-73
2023/07/11 01:57:17;;;;;;;14.05;5.40;;;;;;;;;;5130438;27;20468;-73
2023/07/11 01:59:43;;;;;;;12.02;4.90;;;18.00;96.40;;;;;;5124193;27;20494;-73
2023/07/11 02:02:10;;;;;;;13.80;5.53;;;19.20;96.90;;;;;;5129558;27;20522;-73
2023/07/11 02:04:37;;;;;;;13.07;5.40;;;18.00;99.90;;;;;;5110601;28;20411;-73
2023/07/11 02:07:04;;;;;;;12.07;5.10;;;18.10;97.30;;;;;;5124042;27;20043;-72
2023/07/11 02:09:30;;;;;;;11.07;5.45;;;18.00;99.90;;;;;;5107730;28;20039;-72
2023/07/11 02:11:56;;;;;;;13.25;5.85;;;;;;;;;;5129173;27;20035;-72
2023/07/11 02:14:22;;;;;;;19.23;5.90;;;18.20;99.90;;;;;;5115804;28;20043;-72
2023/07/11 02:16:50;;;;;;;15.18;5.07;;;18.90;97.40;;;;;;5126692;27;20114;-73
2023/07/11 02:19:18;;;;;;;10.98;5.20;;;20.00;97.80;;;;;;5126955;27;20123;-73
2023/07/11 02:21:44;;;;;;;16.15;4.97;;;17.90;99.90;;;;;;5129155;27;20035;-73
2023/07/11 02:24:12;;;;;;;14.30;5.40;;;18.70;97.70;;;;;;5132701;27;20054;-74
2023/07/11 02:26:38;;;;;;;21.67;5.95;;;18.20;99.90;;;;;;5129636;27;20035;-73
2023/07/11 02:29:05;;;;;;;16.77;5.65;;;17.70;99.90;;;;;;5127052;27;20028;-73
2023/07/11 02:31:32;;;;;;;20.27;5.78;;;18.50;97.90;;;;;;5126694;27;20055;-73
2023/07/11 02:33:58;;;;;;;15.20;6.10;;;18.90;99.90;;;;;;5102624;27;20046;-73
2023/07/11 02:36:24;;;;;;;17.25;5.40;;;19.20;99.90;;;;;;5128726;27;20171;-73
2023/07/11 02:38:50;;;;;;;13.02;5.78;;;18.60;99.90;;;;;;5121525;27;20035;-73
2023/07/11 02:41:16;;;;;;;20.25;5.95;;;;;;;;;;5125703;27;20031;-72
2023/07/11 02:43:42;;;;;;;14.77;6.30;;;;;;;;;;5117931;27;20075;-72
2023/07/11 02:46:09;;;;;;;14.52;5.72;;;;;;;;;;5127393;27;20039;-72
2023/07/11 02:48:34;;;;;;;11.68;5.60;;;17.60;99.90;;;;;;5125071;27;20042;-72
2023/07/11 02:51:01;;;;;;;23.45;5.57;;;;;;;;;;5131820;27;20047;-70
2023/07/11 02:53:26;;;;;;;14.95;5.85;;;18.90;99.90;;;;;;5113167;28;20039;-70
2023/07/11 02:55:53;;;;;;;11.23;5.57;;;18.80;98.00;;;;;;5115631;27;20495;-70
2023/07/11 02:58:19;;;;;;;9.70;5.35;;;19.70;99.90;;;;;;5115402;27;20118;-70
2023/07/11 03:00:54;;;;;;;13.52;5.93;;;17.90;99.90;;;;;;5099601;28;20115;-70
2023/07/11 03:03:20;;;;;;;11.90;5.57;;;17.50;99.90;;;;;;5103156;27;20483;-70
2023/07/11 03:05:51;;;;;;;18.42;5.93;;;19.40;99.90;;;;;;5127338;27;20043;-69
2023/07/11 03:08:17;;;;;;;13.70;6.30;;;18.60;99.90;;;;;;5133482;27;20046;-69
2023/07/11 03:10:44;;;;;;;19.52;6.28;;;19.30;99.90;;;;;;5133713;27;20475;-69
2023/07/11 03:13:10;;;;;;;15.40;6.60;;;18.70;97.70;;;;;;5130985;27;20039;-69
2023/07/11 03:15:37;;;;;;;20.45;7.45;;;18.10;98.10;;;;;;5129810;27;20058;-70
2023/07/11 03:18:03;;;;;;;14.25;6.40;;;19.10;99.90;;;;;;5123388;27;20056;-70
2023/07/11 03:20:29;;;;;;;26.17;6.93;;;;;;;;;;5133112;27;20041;-69
2023/07/11 03:22:55;;;;;;;14.32;7.10;;;;;;;;;;5130769;27;20128;-70
2023/07/11 03:25:22;;;;;;;18.60;7.57;;;;;;;;;;5116041;27;20059;-69
2023/07/11 03:27:48;;;;;;;18.13;8.05;;;18.50;99.90;;;;;;5107524;27;20542;-70
2023/07/11 03:30:14;;;;;;;16.98;6.78;;;;;;;;;;5133309;27;20039;-71
2023/07/11 03:32:39;;;;;;;18.38;6.47;;;18.80;98.70;;;;;;5128021;27;20088;-73
2023/07/11 03:35:06;;;;;;;17.67;6.53;;;;;;;;;;5103127;27;20035;-72
2023/07/11 03:37:32;;;;;;;14.60;5.82;;;18.80;98.60;;;;;;5116051;27;20441;-72
2023/07/11 03:39:58;;;;;;;25.23;7.20;;;;;;;;;;5128413;27;20050;-72
2023/07/11 03:42:23;;;;;;;23.75;6.03;;;17.70;99.70;;;;;;5114167;27;20487;-74
2023/07/11 03:44:49;;;;;;;17.10;6.20;;;;;;;;;;5109203;28;20038;-72
2023/07/11 03:47:15;;;;;;;20.73;6.10;;;;;;;;;;5117089;27;20122;-73
2023/07/11 03:49:41;;;;;;;19.55;6.07;;;;;;;;;;5122576;27;20534;-73
2023/07/11 03:52:07;;;;;;;14.48;5.70;;;17.70;99.40;;;;;;5122976;27;20098;-68
2023/07/11 03:54:33;;;;;;;12.40;6.00;;;;;;;;;;5122003;27;20416;-69
2023/07/11 03:56:59;;;;;;;18.80;6.45;;;;;;;;;;5120679;27;20321;-69
2023/07/11 03:59:25;;;;;;;19.30;6.38;;;19.70;99.40;;;;;;5132795;27;20035;-69
2023/07/11 04:01:51;;;;;;;17.77;6.45;;;;;;;;;;5114177;27;20543;-69
2023/07/11 04:04:17;;;;;;;26.13;6.55;;;;;;;;;;5132207;27;20069;-69
2023/07/11 04:06:43;;;;;;;22.35;6.95;;;;;;;;;;5116913;27;20046;-69
2023/07/11 04:09:09;;;;;;;17.13;6.65;;;19.70;99.30;;;;;;5132000;27;20031;-69
2023/07/11 04:11:35;;;;;;;18.30;7.47;;;;;;;;;;5110232;28;20039;-72
2023/07/11 04:14:01;;;;;;;17.98;7.22;;;;;;;;;;5096813;28;20047;-72
2023/07/11 04:16:27;;;;;;;26.92;7.63;;;;;;;;;;5096721;28;20134;-72
2023/07/11 04:18:53;;;;;;;22.42;7.50;;;19.20;99.20;;;;;;5098632;28;20491;-72
2023/07/11 04:21:19;;;;;;;23.58;7.00;;;;;;;;;;5115841;27;20043;-73
2023/07/11 04:23:45;;;;;;;17.67;7.00;;;;;;;;;;5113114;28;20040;-73
2023/07/11 04:26:11;;;;;;;20.33;7.30;;;19.40;99.90;;;;;;5121387;27;20040;-73
2023/07/11 04:28:37;;;;;;;21.10;9.82;;;;;;;;;;5112475;27;20137;-72
2023/07/11 04:31:03;;;;;;;23.10;8.43;;;;;;;;;;5117715;27;20039;-72
2023/07/11 04:33:29;;;;;;;17.98;8.05;;;19.20;99.90;;;;;;5128666;27;20062;-72
2023/07/11 04:35:55;;;;;;;23.77;8.05;;;;;;;;;;5127310;27;20085;-72
2023/07/11 04:38:20;;;;;;;24.90;9.18;;;17.50;99.30;;;;;;5117414;27;20062;-72
2023/07/11 04:40:46;;;;;;;21.00;8.18;;;;;;;;;;5118182;27;20424;-73
2023/07/11 04:43:13;;;;;;;29.55;8.75;;;;;;;;;;5117165;27;20054;-72
2023/07/11 04:45:39;;;;;;;28.45;8.98;;;;;;;;;;5108542;27;20063;-72
2023/07/11 04:48:05;;;;;;;28.27;9.38;;;19.70;99.90;;;;;;5115942;27;20036;-73
2023/07/11 04:50:31;;;;;;;26.80;9.20;;;;;;;;;;5121367;27;20041;-72
2023/07/11 04:52:57;;;;;;;25.98;11.57;;;17.90;99.90;;;;;;5116165;27;20046;-72
2023/07/11 04:55:23;;;;;;;20.50;8.50;;;;;;;;;;5106079;28;20035;-72
2023/07/11 04:57:49;;;;;;;23.27;9.35;;;17.50;99.90;;;;;;5114640;27;20028;-72
2023/07/11 05:00:14;;;;;;;21.02;9.50;;;19.60;99.90;;;;;;5126503;27;20039;-72
2023/07/11 05:02:41;;;;;;;27.52;9.95;;;;;;;;;;5113608;27;20035;-72
2023/07/11 05:05:07;;;;;;;33.72;10.27;;;18.30;99.90;;;;;;5125457;27;20035;-72
2023/07/11 05:07:32;;;;;;;29.75;10.35;;;19.70;99.90;;;;;;5123512;27;20042;-72
2023/07/11 05:09:58;;;;;;;23.90;10.95;;;18.50;99.90;;;;;;5123031;27;20384;-72
2023/07/11 05:12:24;;;;;;;31.15;11.05;;;;;;;;;;5108041;27;20066;-72
2023/07/11 05:14:50;;;;;;;28.52;11.23;;;;;;;;;;5132282;27;20467;-69
2023/07/11 05:17:16;;;;;;;23.02;9.68;;;19.10;99.90;;;;;;5147458;27;20030;-69
2023/07/11 05:19:42;;;;;;;33.35;11.98;;;18.50;99.90;;;;;;5115137;27;20027;-69
2023/07/11 05:22:08;;;;;;;31.42;12.18;;;;;;;;;;5099856;27;20113;-70
2023/07/11 05:24:34;;;;;;;30.17;12.15;;;19.70;99.90;;;;;;5120517;27;20031;-72
2023/07/11 05:27:00;;;;;;;31.30;12.93;;;;;;;;;;5112171;27;20035;-73
2023/07/11 05:29:26;;;;;;;31.33;13.07;;;19.40;99.90;;;;;;5128716;27;20034;-73
2023/07/11 05:31:52;;;;;;;31.23;12.27;;;19.90;99.90;;;;;;5105600;27;20414;-73
2023/07/11 05:34:18;;;;;;;32.95;12.98;;;19.90;99.90;;;;;;5128643;27;20039;-72
2023/07/11 05:36:44;;;;;;;33.75;14.10;;;;;;;;;;5126568;27;20049;-72
2023/07/11 05:39:15;;;;;;;35.10;14.02;;;18.90;99.90;;;;;;5115247;27;20114;-72
2023/07/11 05:41:47;;;;;;;27.90;13.57;;;19.10;99.20;;;;;;5115469;28;20043;-72
2023/07/11 05:44:14;;;;;;;45.65;15.27;;;19.00;99.90;;;;;;5130995;27;20113;-72
2023/07/11 05:46:40;;;;;;;39.00;14.77;;;20.20;99.90;;;;;;5120798;27;20043;-73
2023/07/11 05:49:07;;;;;;;33.30;13.85;;;18.50;99.90;;;;;;5118239;28;20065;-73
2023/07/11 05:51:33;;;;;;;39.95;14.90;;;18.50;99.90;;;;;;5115720;28;20042;-73
2023/07/11 05:53:59;;;;;;;39.20;14.40;;;20.10;99.90;;;;;;5125499;27;20041;-73
2023/07/11 05:56:25;;;;;;;42.97;16.20;;;;;;;;;;5108536;27;20125;-72
2023/07/11 05:58:53;;;;;;;37.95;13.90;;;19.50;99.90;;;;;;5119012;28;20035;-72
2023/07/11 06:01:22;;;;;;;35.53;14.93;;;19.20;99.90;;;;;;5123470;27;20047;-72
2023/07/11 06:04:02;;;;;;;35.40;14.88;;;19.50;99.40;;;;;;5120104;28;20120;-72
2023/07/11 06:06:28;;;;;;;34.92;15.23;;;;;;;;;;5121868;27;20096;-73
2023/07/11 06:08:55;;;;;;;36.75;15.10;;;19.10;99.90;;;;;;5134549;27;20576;-72
2023/07/11 06:11:21;;;;;;;38.45;15.55;;;19.50;99.90;;;;;;5118311;27;20578;-72
2023/07/11 06:13:47;;;;;;;45.33;16.63;;;;;;;;;;5121807;28;20057;-72
2023/07/11 06:16:15;;;;;;;37.45;16.65;;;20.30;99.90;;;;;;5119358;28;20043;-72
2023/07/11 06:18:41;;;;;;;35.20;15.55;;;;;;;;;;5108231;27;20051;-72
2023/07/11 06:21:09;;;;;;;30.83;15.90;;;18.70;99.90;;;;;;5121019;27;20044;-72
2023/07/11 06:23:35;;;;;;;39.85;15.40;;;;;;;;;;5130492;28;20035;-69
2023/07/11 06:26:01;;;;;;;39.10;16.88;;;19.10;99.90;;;;;;5132111;27;20035;-68
2023/07/11 06:28:28;;;;;;;45.65;16.75;;;;;;;;;;5126605;28;20095;-69
2023/07/11 06:30:58;;;;;;;34.38;15.85;;;19.70;99.30;;;;;;5109920;27;20039;-69
2023/07/11 06:33:24;;;;;;;37.08;15.88;;;20.20;99.90;;;;;;5121293;28;20047;-69
2023/07/11 06:35:51;;;;;;;37.33;15.98;;;19.10;99.90;;;;;;5121530;28;20100;-68
2023/07/11 06:38:18;;;;;;;40.47;17.02;;;18.80;99.90;;;;;;5119283;27;20027;-68
2023/07/11 06:40:49;;;;;;;33.75;16.95;;;19.20;99.90;;;;;;5122736;28;20035;-68
2023/07/11 06:43:15;;;;;;;36.45;15.93;;;20.70;99.90;;;;;;5120363;27;20034;-67
2023/07/11 06:45:41;;;;;;;41.65;15.50;;;20.30;99.90;;;;;;5138722;27;20038;-68
2023/07/11 06:48:07;;;;;;;32.80;15.40;;;;;;;;;;5132481;27;20042;-68
2023/07/11 06:50:34;;;;;;;49.05;19.05;;;20.30;99.90;;;;;;5111277;27;20042;-68
2023/07/11 06:53:00;;;;;;;42.67;17.50;;;;;;;;;;5136906;27;20500;-69
2023/07/11 06:55:26;;;;;;;39.40;17.40;;;;;;;;;;5127315;27;20039;-68
2023/07/11 06:57:52;;;;;;;32.90;14.73;;;20.30;99.90;;;;;;5136500;27;20051;-70
2023/07/11 07:00:18;;;;;;;38.55;16.65;;;20.70;99.60;;;;;;5111140;27;20045;-71
2023/07/11 07:02:44;;;;;;;33.60;15.68;;;19.60;99.90;;;;;;5133950;27;20053;-71
2023/07/11 07:05:10;;;;;;;33.80;16.45;;;21.40;99.90;;;;;;5127425;27;20121;-71
2023/07/11 07:07:36;;;;;;;31.88;15.13;;;;;;;;;;5121845;27;20118;-75
2023/07/11 07:10:02;;;;;;;33.75;14.57;;;21.30;99.90;;;;;;5117327;27;20837;-75
2023/07/11 07:12:28;;;;;;;41.22;17.42;;;21.40;99.90;;;;;;5139364;27;20054;-75
2023/07/11 07:14:54;;;;;;;28.25;14.10;;;;;;;;;;5137726;27;20474;-75
2023/07/11 07:17:20;;;;;;;37.78;15.90;;;19.80;99.90;;;;;;5138970;27;20531;-73
2023/07/11 07:19:46;;;;;;;33.58;15.55;;;;;;;;;;5130073;27;20031;-72
2023/07/11 07:22:12;;;;;;;36.60;16.45;;;21.30;99.90;;;;;;5138801;27;20578;-73
2023/07/11 07:24:38;;;;;;;37.92;16.23;;;;;;;;;;5135478;27;20478;-72
2023/07/11 07:27:04;;;;;;;33.45;14.15;;;21.80;99.90;;;;;;5118413;27;20168;-72
2023/07/11 07:29:30;;;;;;;31.83;15.02;;;21.10;99.90;;;;;;5101620;27;20043;-69
2023/07/11 07:31:56;;;;;;;38.85;15.40;;;;;;;;;;5138728;27;20050;-69
2023/07/11 07:34:22;;;;;;;33.30;14.90;;;;;;;;;;5138302;27;20506;-69
2023/07/11 07:36:48;;;;;;;31.35;16.38;;;21.80;99.90;;;;;;5118985;27;20088;-69
2023/07/11 07:39:14;;;;;;;33.08;15.20;;;;;;;;;;5100901;27;20050;-69
2023/07/11 07:41:41;;;;;;;29.02;15.30;;;21.90;99.90;;;;;;5117806;27;20456;-69
2023/07/11 07:44:07;;;;;;;34.10;15.38;;;;;;;;;;5117805;27;20095;-69
2023/07/11 07:46:33;;;;;;;22.98;12.85;;;20.30;99.90;;;;;;5131903;27;20087;-69
2023/07/11 07:48:59;;;;;;;28.10;13.77;;;;;;;;;;5130996;27;20043;-69
2023/07/11 07:51:25;;;;;;;34.42;13.57;;;20.60;99.90;;;;;;5129789;27;20034;-69
2023/07/11 07:53:51;;;;;;;28.85;12.85;;;;;;;;;;5132696;27;20039;-69
2023/07/11 07:56:20;;;;;;;26.70;12.55;;;21.00;99.90;;;;;;5111012;27;20467;-69
2023/07/11 07:58:47;;;;;;;28.08;12.52;;;22.20;99.50;;;;;;5118119;27;20039;-68
2023/07/11 08:01:15;;;;;;;29.13;12.20;;;21.80;99.90;;;;;;5100062;27;20047;-69
2023/07/11 08:03:41;;;;;;;32.35;12.25;;;22.30;99.90;;;;;;5106657;27;20050;-69
2023/07/11 08:06:08;;;;;;;34.70;12.00;;;;;;;;;;5140448;27;20042;-68
2023/07/11 08:08:34;;;;;;;35.67;13.27;;;;;;;;;;5100564;27;20113;-68
2023/07/11 08:11:04;;;;;;;33.60;11.10;;;22.40;98.00;;;;;;5118570;27;20054;-69
2023/07/11 08:13:30;;;;;;;24.48;9.85;;;22.40;99.90;;;;;;5117558;27;20077;-68
2023/07/11 08:15:56;;;;;;;20.80;10.05;;;21.70;99.90;;;;;;5121724;27;20078;-69
2023/07/11 08:18:22;;;;;;;18.63;9.50;;;22.70;99.90;;;;;;5117135;27;20053;-69
2023/07/11 08:20:48;;;;;;;24.20;8.95;;;23.10;99.90;;;;;;5103172;27;20062;-69
2023/07/11 08:23:14;;;;;;;22.23;9.60;;;22.40;97.10;;;;;;5132976;27;20030;-69
2023/07/11 08:25:41;;;;;;;21.33;9.38;;;;;;;;;;5133790;27;20046;-68
2023/07/11 08:28:07;;;;;;;25.25;8.55;;;23.00;97.00;;;;;;5131042;27;20121;-68
2023/07/11 08:30:39;;;;;;;21.13;8.95;;;23.50;99.90;;;;;;5117286;27;20066;-69
2023/07/11 08:33:06;;;;;;;18.40;9.18;;;22.70;96.40;;;;;;5130437;27;20551;-69
2023/07/11 08:35:32;;;;;;;20.33;8.25;;;23.50;98.50;;;;;;5136408;27;20031;-73
2023/07/11 08:37:58;;;;;;;27.58;9.88;;;;;;;;;;5135333;27;20098;-73
2023/07/11 08:40:28;;;;;;;22.95;8.70;;;23.50;96.40;;;;;;5121163;27;20034;-73
2023/07/11 08:42:54;;;;;;;24.30;8.95;;;;;;;;;;5119299;27;20114;-73
2023/07/11 08:45:27;;;;;;;21.35;7.97;;;23.20;94.90;;;;;;5105596;27;20036;-72
2023/07/11 08:48:02;;;;;;;23.67;9.30;;;23.40;99.90;;;;;;5119747;27;20075;-72
2023/07/11 08:50:56;;;;;;;23.55;7.85;;;23.70;99.90;;;;;;5120019;27;20508;-72
2023/07/11 08:53:30;;;;;;;23.85;8.48;;;23.30;96.40;;;;;;5118080;27;20068;-72
2023/07/11 08:55:58;;;;;;;21.95;7.55;;;23.70;94.50;;;;;;5111666;27;20111;-72
2023/07/11 08:58:33;;;;;;;16.13;7.75;;;23.60;93.80;;;;;;5116706;27;20070;-73
2023/07/11 09:01:02;;;;;;;20.85;6.97;;;24.10;99.10;;;;;;5135466;27;20046;-72
2023/07/11 09:03:39;;;;;;;20.55;7.85;;;23.60;98.80;;;;;;5136297;27;20073;-72
2023/07/11 09:06:15;;;;;;;17.83;7.05;;;23.80;93.20;;;;;;5135967;27;20038;-72
2023/07/11 09:08:46;;;;;;;21.42;7.65;;;24.60;98.70;;;;;;5116665;27;20039;-72
2023/07/11 09:11:29;;;;;;;21.15;7.38;;;24.30;93.60;;;;;;5109735;27;20034;-72
2023/07/11 09:13:58;;;;;;;23.88;8.45;;;24.60;98.00;;;;;;5116358;27;20051;-72
2023/07/11 09:16:26;;;;;;;23.08;7.05;;;24.60;97.90;;;;;;5125927;27;20064;-73
2023/07/11 09:19:14;;;;;;;19.48;7.32;;;24.30;92.20;;;;;;5136818;27;20474;-74
2023/07/11 09:21:49;;;;;;;18.20;6.97;;;24.50;93.90;;;;;;5132297;27;20121;-73
2023/07/11 09:24:46;;;;;;;22.15;7.60;;;24.00;97.40;;;;;;5116430;27;20513;-72
2023/07/11 09:27:12;;;;;;;21.10;6.00;;;;;;;;;;5115744;27;20035;-72
2023/07/11 09:29:38;;;;;;;14.93;6.20;;;;;;;;;;5098866;28;20045;-73
2023/07/11 09:32:09;;;;;;;16.92;5.88;;;25.00;92.60;;;;;;5120106;27;20508;-72
2023/07/11 09:34:37;;;;;;;17.55;6.50;;;25.20;96.20;;;;;;5134605;27;20030;-69
2023/07/11 09:37:32;;;;;;;22.52;6.00;;;24.70;90.80;;;;;;5133125;27;20046;-69
2023/07/11 09:40:07;;;;;;;20.17;6.65;;;25.10;91.80;;;;;;5135427;27;20103;-69
2023/07/11 09:42:54;;;;;;;23.67;7.43;;;24.90;96.00;;;;;;5135553;27;20027;-69
2023/07/11 09:45:27;;;;;;;29.95;8.07;;;25.00;94.90;;;;;;5132975;28;20058;-69
2023/07/11 09:48:13;;;;;;;42.25;7.50;;;25.10;96.20;;;;;;5118344;28;20129;-69
2023/07/11 09:50:45;;;;;;;26.00;7.50;;;25.60;96.30;;;;;;5087936;28;20571;-69
2023/07/11 09:53:23;;;;;;;27.50;8.93;;;25.40;96.00;;;;;;5126487;28;20043;-69
2023/07/11 09:55:59;;;;;;;31.52;9.13;;;25.80;95.60;;;;;;5116743;27;20049;-70
2023/07/11 09:58:28;;;;;;;28.80;7.93;;;25.50;90.80;;;;;;5115386;28;20451;-69
2023/07/11 10:01:00;;;;;;;23.27;8.13;;;25.30;90.30;;;;;;5131434;27;20043;-69
2023/07/11 10:03:28;;;;;;;22.90;7.57;;;25.70;94.20;;;;;;5122347;28;20062;-70
2023/07/11 10:05:54;;;;;;;26.58;8.63;;;26.00;95.00;;;;;;5116700;27;20044;-69
2023/07/11 10:08:20;;;;;;;23.13;7.65;;;;;;;;;;5123587;27;20034;-71
2023/07/11 10:10:52;;;;;;;30.92;8.93;;;25.70;94.70;;;;;;5133919;27;20034;-69
2023/07/11 10:13:19;;;;;;;28.20;9.32;;;25.70;94.70;;;;;;5115553;28;20043;-69
2023/07/11 10:15:51;;;;;;;32.45;9.70;;;25.30;94.20;;;;;;5123073;27;20046;-69
2023/07/11 10:18:23;;;;;;;40.58;10.63;;;26.10;94.80;;;;;;5139261;27;20061;-69
2023/07/11 10:21:15;;;;;;;31.88;9.32;;;26.10;92.60;;;;;;5122936;27;20056;-69
2023/07/11 10:23:43;;;;;;;30.92;8.55;;;25.40;89.90;;;;;;5122480;27;20035;-69
2023/07/11 10:26:09;;;;;;;31.00;9.32;;;;;;;;;;5104889;27;20035;-71
2023/07/11 10:28:45;;;;;;;24.55;9.40;;;25.30;94.60;;;;;;5130272;27;20038;-68
2023/07/11 10:31:18;;;;;;;25.33;9.38;;;25.00;94.80;;;;;;5122735;27;20391;-68
2023/07/11 10:33:53;;;;;;;34.67;11.10;;;25.60;88.30;;;;;;5126480;27;20062;-68
2023/07/11 10:36:28;;;;;;;41.60;10.35;;;25.40;95.00;;;;;;5128648;27;20364;-69
2023/07/11 10:38:56;;;;;;;30.17;9.05;;;25.10;94.90;;;;;;5114581;27;20039;-69
2023/07/11 10:41:49;;;;;;;21.85;8.02;;;25.60;88.40;;;;;;5131092;27;20047;-72
2023/07/11 10:44:22;;;;;;;34.50;10.27;;;25.80;90.20;;;;;;5117808;27;20051;-73
2023/07/11 10:46:50;;;;;;;24.20;10.02;;;26.00;90.10;;;;;;5103814;27;20034;-72
2023/07/11 10:49:22;;;;;;;31.30;10.20;;;25.20;94.70;;;;;;5123877;27;20535;-73
2023/07/11 10:52:21;;;;;;;29.00;10.30;;;26.00;95.00;;;;;;5127655;27;20077;-69
2023/07/11 10:55:17;;;;;;;36.75;9.15;;;26.00;87.90;;;;;;5123138;27;20058;-69
2023/07/11 10:57:50;;;;;;;33.53;7.47;;;25.80;89.40;;;;;;5135879;27;20129;-69
2023/07/11 11:00:22;;;;;;;18.67;6.38;;;25.90;94.50;;;;;;5127105;27;20139;-69
2023/07/11 11:03:25;;;;;;;24.75;6.70;;;26.30;86.70;;;;;;5124490;27;20118;-69
2023/07/11 11:06:17;;;;;;;35.42;8.05;;;26.50;88.50;;;;;;5122297;27;20108;-68
2023/07/11 11:09:04;;;;;;;20.02;6.32;;;26.10;93.90;;;;;;5128166;27;20128;-68
2023/07/11 11:11:30;;;;;;;30.80;7.03;;;;;;;;;;5126263;27;20031;-68
2023/07/11 11:14:09;;;;;;;21.90;6.53;;;26.20;85.20;;;;;;5103377;27;20439;-68
2023/07/11 11:16:44;;;;;;;19.88;7.10;;;26.20;87.70;;;;;;5126403;27;20039;-68
2023/07/11 11:19:30;;;;;;;25.45;6.78;;;26.20;87.40;;;;;;5126171;27;20042;-68
2023/07/11 11:22:05;;;;;;;24.73;7.55;;;25.70;93.60;;;;;;5117911;27;20126;-68
2023/07/11 11:25:04;;;;;;;28.45;7.45;;;26.50;93.90;;;;;;5121994;27;20497;-68
2023/07/11 11:28:07;;;;;;;29.02;7.65;;;26.50;93.70;;;;;;5130485;27;20053;-68
2023/07/11 11:30:39;;;;;;;22.10;6.13;;;26.10;90.30;;;;;;5126881;27;20088;-68
2023/07/11 11:33:23;;;;;;;;;;;26.40;88.80;;;;;;5126200;27;20057;-68
2023/07/11 11:35:59;;;;;;;28.38;6.90;;;26.20;94.00;;;;;;5135407;27;19922;-68
2023/07/11 11:38:38;;;;;;;32.50;6.10;;;26.10;90.90;;;;;;5120912;27;20506;-68
2023/07/11 11:41:11;;;;;;;29.88;7.78;;;25.80;90.40;;;;;;5138083;27;20085;-68
2023/07/11 11:43:37;;;;;;;26.00;6.88;;;26.40;86.90;;;;;;5124470;27;20043;-68
2023/07/11 11:46:06;;;;;;;34.08;7.40;;;26.80;91.70;;;;;;5118490;27;20450;-68
2023/07/11 11:48:34;;;;;;;31.60;7.90;;;26.30;93.30;;;;;;5117699;27;20043;-68
2023/07/11 11:51:07;;;;;;;24.88;7.63;;;26.40;92.20;;;;;;5117854;27;20061;-68
2023/07/11 11:53:46;;;;;;;27.05;7.82;;;26.90;84.60;;;;;;5117554;27;20035;-68
2023/07/11 11:56:15;;;;;;;27.48;7.10;;;27.20;92.20;;;;;;5134797;27;20038;-68
2023/07/11 11:59:05;;;;;;;19.90;7.32;;;26.50;93.30;;;;;;5137975;27;20391;-68
2023/07/11 12:01:46;;;;;;;26.95;7.50;;;27.20;93.40;;;;;;5129361;27;20049;-68
2023/07/11 12:04:37;;;;;;;26.20;6.63;;;27.40;93.10;;;;;;5123075;27;20112;-68
2023/07/11 12:07:08;;;;;;;23.43;6.30;;;26.80;82.00;;;;;;5119123;27;20056;-68
2023/07/11 12:09:37;;;;;;;21.20;6.28;;;27.30;80.90;;;;;;5128292;27;20624;-68
2023/07/11 12:12:03;;;;;;;21.30;5.88;;;27.50;91.90;;;;;;5134508;27;20082;-68
2023/07/11 12:14:34;;;;;;;24.25;5.93;;;27.30;91.70;;;;;;5124465;27;20078;-68
2023/07/11 12:17:00;;;;;;;21.38;6.72;;;27.70;90.60;;;;;;5116482;27;20558;-68
2023/07/11 12:19:38;;;;;;;12.65;4.38;;;27.60;79.20;;;;;;5130104;27;20121;-68
2023/07/11 12:22:07;;;;;;;20.85;4.75;;;27.00;83.00;;;;;;5120260;27;20043;-69
2023/07/11 12:24:32;;;;;;;14.88;3.75;;;27.80;88.60;;;;;;5117105;27;20039;-69
2023/07/11 12:27:28;;;;;;;15.20;3.97;;;27.80;88.40;;;;;;5116906;27;20041;-69
2023/07/11 12:29:55;;;;;;;16.90;3.22;;;27.30;87.40;;;;;;5104040;27;20390;-71
2023/07/11 12:32:33;;;;;;;12.65;3.47;;;27.90;88.50;;;;;;5124578;27;20049;-72
2023/07/11 12:35:05;;;;;;;12.45;2.78;;;27.60;76.60;;;;;;5127270;27;20491;-72
2023/07/11 12:37:48;;;;;;;13.95;3.67;;;27.40;77.10;;;;;;5125003;27;20129;-72
2023/07/11 12:40:27;;;;;;;11.30;2.95;;;27.70;91.00;;;;;;5117153;27;20035;-72
2023/07/11 12:42:56;;;;;;;9.88;2.60;;;27.10;91.20;;;;;;5123869;27;20042;-73
2023/07/11 12:45:32;;;;;;;10.68;2.83;;;27.40;80.10;;;;;;5134777;27;20038;-71
2023/07/11 12:48:13;;;;;;;9.18;3.17;;;27.80;91.80;;;;;;5116363;27;20043;-72
2023/07/11 12:50:48;;;;;;;9.95;2.70;;;27.00;82.50;;;;;;5129978;27;20038;-72
2023/07/11 12:53:14;;;;;;;7.85;2.58;;;26.60;92.00;;;;;;5136961;27;20117;-71
2023/07/11 12:55:45;;;;;;;12.40;3.53;;;26.90;82.20;;;;;;5123923;27;20509;-71
2023/07/11 12:58:23;;;;;;;13.50;3.20;;;27.40;92.80;;;;;;5116451;27;20043;-71
2023/07/11 13:00:51;;;;;;;11.25;3.22;;;26.30;92.40;;;;;;5131786;27;20114;-71
2023/07/11 13:03:28;;;;;;;17.80;4.38;;;27.30;92.60;;;;;;5119727;27;20122;-71
2023/07/11 13:05:56;;;;;;;13.63;3.63;;;27.30;92.90;;;;;;5136597;27;20480;-71
2023/07/11 13:08:27;;;;;;;17.65;3.53;;;26.80;84.70;;;;;;5130492;27;20086;-72
2023/07/11 13:10:56;;;;;;;11.52;3.50;;;27.20;93.40;;;;;;5128797;27;20046;-68
2023/07/11 13:13:24;;;;;;;17.15;3.83;;;26.90;93.40;;;;;;5127124;27;20039;-71